Baltimore/Inner Harbor, Maryland
Current Conditions -  °F | °C
As of 4:54 AM on Sunday 23 Nov 2014 (Local Time) from KBWI Reporting Station
Scattered Clouds Scattered Clouds  
Wind Chill:   Ceiling: Unl
Heat Index:   Visibility: 10mi
Dew Point: -8°   Wind: 6mph
Humidity: 38%   Direction: 230°SW
Pressure: 30.19"   Gusts: NA
Location:  39.28°N, 76.62°W
Report Text: KBWI 230954Z 23005KT 10SM FEW095 SCT200 06/M08 A3019 RMK AO2 SLP225 T00561078
Loading
Personal Weather Stations






























Interactive Weather Map New forecast layout! Learn more

10-Day Weather Forecast

Advertisements
Track Severe Weather on mobile